sensor_id;sensor_type;location;lat;lon;timestamp;P1;durP1;ratioP1;P2;durP2;ratioP2
46881;SDS011;44112;38.408;-122.974;2022-10-31T00:01:10;10.88;;;7.22;;
46881;SDS011;44112;38.408;-122.974;2022-10-31T00:03:56;10.00;;;6.72;;
46881;SDS011;44112;38.408;-122.974;2022-10-31T00:06:23;15.18;;;7.90;;
46881;SDS011;44112;38.408;-122.974;2022-10-31T00:08:53;11.48;;;6.78;;
46881;SDS011;44112;38.408;-122.974;2022-10-31T00:11:28;13.00;;;6.70;;
46881;SDS011;44112;38.408;-122.974;2022-10-31T00:13:58;15.73;;;7.13;;
46881;SDS011;44112;38.408;-122.974;2022-10-31T00:16:27;12.07;;;6.68;;
46881;SDS011;44112;38.408;-122.974;2022-10-31T00:18:55;10.48;;;6.72;;
46881;SDS011;44112;38.408;-122.974;2022-10-31T00:21:28;11.75;;;6.53;;
46881;SDS011;44112;38.408;-122.974;2022-10-31T00:23:55;9.98;;;6.70;;
46881;SDS011;44112;38.408;-122.974;2022-10-31T00:26:23;13.48;;;7.20;;
46881;SDS011;44112;38.408;-122.974;2022-10-31T00:28:51;12.77;;;7.15;;
46881;SDS011;44112;38.408;-122.974;2022-10-31T00:31:18;11.95;;;7.45;;
46881;SDS011;44112;38.408;-122.974;2022-10-31T00:33:44;12.05;;;6.82;;
46881;SDS011;44112;38.408;-122.974;2022-10-31T00:36:12;9.23;;;6.32;;
46881;SDS011;44112;38.408;-122.974;2022-10-31T00:38:43;13.30;;;7.05;;
46881;SDS011;44112;38.408;-122.974;2022-10-31T00:41:11;11.45;;;6.47;;
46881;SDS011;44112;38.408;-122.974;2022-10-31T00:43:39;12.00;;;6.85;;
46881;SDS011;44112;38.408;-122.974;2022-10-31T00:46:07;10.05;;;6.32;;
46881;SDS011;44112;38.408;-122.974;2022-10-31T00:48:33;8.88;;;5.85;;
46881;SDS011;44112;38.408;-122.974;2022-10-31T00:51:00;11.10;;;6.18;;
46881;SDS011;44112;38.408;-122.974;2022-10-31T00:53:27;10.18;;;7.05;;
46881;SDS011;44112;38.408;-122.974;2022-10-31T00:55:53;10.10;;;6.30;;
46881;SDS011;44112;38.408;-122.974;2022-10-31T00:58:20;9.73;;;6.65;;
46881;SDS011;44112;38.408;-122.974;2022-10-31T01:00:47;10.15;;;6.22;;
46881;SDS011;44112;38.408;-122.974;2022-10-31T01:03:38;10.65;;;6.22;;
46881;SDS011;44112;38.408;-122.974;2022-10-31T01:06:06;12.27;;;6.65;;
46881;SDS011;44112;38.408;-122.974;2022-10-31T01:08:35;10.68;;;6.30;;
46881;SDS011;44112;38.408;-122.974;2022-10-31T01:13:43;9.63;;;5.90;;
46881;SDS011;44112;38.408;-122.974;2022-10-31T01:16:11;10.38;;;6.28;;
46881;SDS011;44112;38.408;-122.974;2022-10-31T01:18:42;9.68;;;6.55;;
46881;SDS011;44112;38.408;-122.974;2022-10-31T01:21:19;8.57;;;5.95;;
46881;SDS011;44112;38.408;-122.974;2022-10-31T01:23:47;9.13;;;6.38;;
46881;SDS011;44112;38.408;-122.974;2022-10-31T01:26:16;8.55;;;5.47;;
46881;SDS011;44112;38.408;-122.974;2022-10-31T01:28:50;9.55;;;6.68;;
46881;SDS011;44112;38.408;-122.974;2022-10-31T01:31:19;11.30;;;6.25;;
46881;SDS011;44112;38.408;-122.974;2022-10-31T01:33:47;9.18;;;6.15;;
46881;SDS011;44112;38.408;-122.974;2022-10-31T01:36:33;10.60;;;6.13;;
46881;SDS011;44112;38.408;-122.974;2022-10-31T01:39:04;14.77;;;6.63;;
46881;SDS011;44112;38.408;-122.974;2022-10-31T01:41:33;15.35;;;7.30;;
46881;SDS011;44112;38.408;-122.974;2022-10-31T01:44:03;13.57;;;7.03;;
46881;SDS011;44112;38.408;-122.974;2022-10-31T01:49:38;14.65;;;6.80;;
46881;SDS011;44112;38.408;-122.974;2022-10-31T01:52:14;13.20;;;5.93;;
46881;SDS011;44112;38.408;-122.974;2022-10-31T01:54:49;10.70;;;6.25;;
46881;SDS011;44112;38.408;-122.974;2022-10-31T01:57:28;11.93;;;5.88;;
46881;SDS011;44112;38.408;-122.974;2022-10-31T01:59:58;14.95;;;6.20;;
46881;SDS011;44112;38.408;-122.974;2022-10-31T02:02:27;11.73;;;6.10;;
46881;SDS011;44112;38.408;-122.974;2022-10-31T02:04:55;10.80;;;5.95;;
46881;SDS011;44112;38.408;-122.974;2022-10-31T02:07:26;11.40;;;6.50;;
46881;SDS011;44112;38.408;-122.974;2022-10-31T02:10:00;11.60;;;6.38;;
46881;SDS011;44112;38.408;-122.974;2022-10-31T02:12:28;11.85;;;6.10;;
46881;SDS011;44112;38.408;-122.974;2022-10-31T02:14:57;11.05;;;6.25;;
46881;SDS011;44112;38.408;-122.974;2022-10-31T02:17:24;10.65;;;5.88;;
46881;SDS011;44112;38.408;-122.974;2022-10-31T02:20:04;14.18;;;6.97;;
46881;SDS011;44112;38.408;-122.974;2022-10-31T02:29:05;12.48;;;6.55;;
46881;SDS011;44112;38.408;-122.974;2022-10-31T02:42:51;15.93;;;5.45;;
46881;SDS011;44112;38.408;-122.974;2022-10-31T02:45:44;10.75;;;5.65;;
46881;SDS011;44112;38.408;-122.974;2022-10-31T02:48:43;8.25;;;5.20;;
46881;SDS011;44112;38.408;-122.974;2022-10-31T02:51:11;12.80;;;5.65;;
46881;SDS011;44112;38.408;-122.974;2022-10-31T02:53:38;10.13;;;5.75;;
46881;SDS011;44112;38.408;-122.974;2022-10-31T02:58:42;12.48;;;6.15;;
46881;SDS011;44112;38.408;-122.974;2022-10-31T03:01:17;9.07;;;5.18;;
46881;SDS011;44112;38.408;-122.974;2022-10-31T03:09:26;11.63;;;5.97;;
46881;SDS011;44112;38.408;-122.974;2022-10-31T03:17:38;11.75;;;5.60;;
46881;SDS011;44112;38.408;-122.974;2022-10-31T03:20:57;9.10;;;5.63;;
46881;SDS011;44112;38.408;-122.974;2022-10-31T03:23:46;11.43;;;5.10;;
46881;SDS011;44112;38.408;-122.974;2022-10-31T03:26:14;10.68;;;5.40;;
46881;SDS011;44112;38.408;-122.974;2022-10-31T03:28:47;10.75;;;5.40;;
46881;SDS011;44112;38.408;-122.974;2022-10-31T03:31:26;8.27;;;5.15;;
46881;SDS011;44112;38.408;-122.974;2022-10-31T03:33:58;17.77;;;6.30;;
46881;SDS011;44112;38.408;-122.974;2022-10-31T03:36:26;18.35;;;6.53;;
46881;SDS011;44112;38.408;-122.974;2022-10-31T03:38:56;17.52;;;6.22;;
46881;SDS011;44112;38.408;-122.974;2022-10-31T03:41:27;14.38;;;6.10;;
46881;SDS011;44112;38.408;-122.974;2022-10-31T03:43:59;14.10;;;5.85;;
46881;SDS011;44112;38.408;-122.974;2022-10-31T03:46:30;21.13;;;6.60;;
46881;SDS011;44112;38.408;-122.974;2022-10-31T03:48:57;29.92;;;6.65;;
46881;SDS011;44112;38.408;-122.974;2022-10-31T03:51:38;27.27;;;7.00;;
46881;SDS011;44112;38.408;-122.974;2022-10-31T03:57:03;21.35;;;6.25;;
46881;SDS011;44112;38.408;-122.974;2022-10-31T03:59:40;25.52;;;6.68;;
46881;SDS011;44112;38.408;-122.974;2022-10-31T04:02:11;20.25;;;6.70;;
46881;SDS011;44112;38.408;-122.974;2022-10-31T04:04:44;31.45;;;7.43;;
46881;SDS011;44112;38.408;-122.974;2022-10-31T04:07:12;29.92;;;8.27;;
46881;SDS011;44112;38.408;-122.974;2022-10-31T04:09:41;26.73;;;7.50;;
46881;SDS011;44112;38.408;-122.974;2022-10-31T04:12:12;33.45;;;7.18;;
46881;SDS011;44112;38.408;-122.974;2022-10-31T04:14:43;31.63;;;8.65;;
46881;SDS011;44112;38.408;-122.974;2022-10-31T04:17:13;27.42;;;7.22;;
46881;SDS011;44112;38.408;-122.974;2022-10-31T04:19:41;34.42;;;7.78;;
46881;SDS011;44112;38.408;-122.974;2022-10-31T04:22:08;18.48;;;6.15;;
46881;SDS011;44112;38.408;-122.974;2022-10-31T04:24:36;24.13;;;7.07;;
46881;SDS011;44112;38.408;-122.974;2022-10-31T04:27:05;26.10;;;6.95;;
46881;SDS011;44112;38.408;-122.974;2022-10-31T04:29:32;21.02;;;7.32;;
46881;SDS011;44112;38.408;-122.974;2022-10-31T04:31:58;29.13;;;7.38;;
46881;SDS011;44112;38.408;-122.974;2022-10-31T04:34:25;21.38;;;7.25;;
46881;SDS011;44112;38.408;-122.974;2022-10-31T04:36:51;21.00;;;6.90;;
46881;SDS011;44112;38.408;-122.974;2022-10-31T04:39:18;23.50;;;6.47;;
46881;SDS011;44112;38.408;-122.974;2022-10-31T04:41:45;17.10;;;6.13;;
46881;SDS011;44112;38.408;-122.974;2022-10-31T04:44:12;21.55;;;6.75;;
46881;SDS011;44112;38.408;-122.974;2022-10-31T04:46:40;19.25;;;6.65;;
46881;SDS011;44112;38.408;-122.974;2022-10-31T04:49:07;14.45;;;5.88;;
46881;SDS011;44112;38.408;-122.974;2022-10-31T04:51:34;18.08;;;7.03;;
46881;SDS011;44112;38.408;-122.974;2022-10-31T04:54:01;19.08;;;6.95;;
46881;SDS011;44112;38.408;-122.974;2022-10-31T04:56:28;20.75;;;6.80;;
46881;SDS011;44112;38.408;-122.974;2022-10-31T04:58:55;16.52;;;6.85;;
46881;SDS011;44112;38.408;-122.974;2022-10-31T05:01:22;22.08;;;6.45;;
46881;SDS011;44112;38.408;-122.974;2022-10-31T05:03:48;16.27;;;6.53;;
46881;SDS011;44112;38.408;-122.974;2022-10-31T05:06:15;20.50;;;6.38;;
46881;SDS011;44112;38.408;-122.974;2022-10-31T05:08:42;19.98;;;6.38;;
46881;SDS011;44112;38.408;-122.974;2022-10-31T05:11:08;15.18;;;6.70;;
46881;SDS011;44112;38.408;-122.974;2022-10-31T05:13:35;20.42;;;6.15;;
46881;SDS011;44112;38.408;-122.974;2022-10-31T05:16:01;14.75;;;6.40;;
46881;SDS011;44112;38.408;-122.974;2022-10-31T05:18:28;15.45;;;5.95;;
46881;SDS011;44112;38.408;-122.974;2022-10-31T05:20:54;14.55;;;6.13;;
46881;SDS011;44112;38.408;-122.974;2022-10-31T05:23:21;17.00;;;5.97;;
46881;SDS011;44112;38.408;-122.974;2022-10-31T05:25:47;15.82;;;5.95;;
46881;SDS011;44112;38.408;-122.974;2022-10-31T05:28:15;11.55;;;6.18;;
46881;SDS011;44112;38.408;-122.974;2022-10-31T05:30:41;16.30;;;6.00;;
46881;SDS011;44112;38.408;-122.974;2022-10-31T05:33:08;15.02;;;5.90;;
46881;SDS011;44112;38.408;-122.974;2022-10-31T05:35:34;14.63;;;5.90;;
46881;SDS011;44112;38.408;-122.974;2022-10-31T05:38:00;12.05;;;5.53;;
46881;SDS011;44112;38.408;-122.974;2022-10-31T05:40:27;12.40;;;6.03;;
46881;SDS011;44112;38.408;-122.974;2022-10-31T05:42:55;15.52;;;5.53;;
46881;SDS011;44112;38.408;-122.974;2022-10-31T05:45:23;9.95;;;5.55;;
46881;SDS011;44112;38.408;-122.974;2022-10-31T05:47:54;14.73;;;6.40;;
46881;SDS011;44112;38.408;-122.974;2022-10-31T05:50:25;14.27;;;6.03;;
46881;SDS011;44112;38.408;-122.974;2022-10-31T05:52:57;11.10;;;5.50;;
46881;SDS011;44112;38.408;-122.974;2022-10-31T05:55:25;13.00;;;6.03;;
46881;SDS011;44112;38.408;-122.974;2022-10-31T05:57:52;9.90;;;5.72;;
46881;SDS011;44112;38.408;-122.974;2022-10-31T06:00:19;9.80;;;5.88;;
46881;SDS011;44112;38.408;-122.974;2022-10-31T06:02:47;11.15;;;5.63;;
46881;SDS011;44112;38.408;-122.974;2022-10-31T06:05:14;9.68;;;5.72;;
46881;SDS011;44112;38.408;-122.974;2022-10-31T06:07:42;12.50;;;5.82;;
46881;SDS011;44112;38.408;-122.974;2022-10-31T06:10:08;11.98;;;5.47;;
46881;SDS011;44112;38.408;-122.974;2022-10-31T06:12:36;11.88;;;5.95;;
46881;SDS011;44112;38.408;-122.974;2022-10-31T06:15:03;11.15;;;5.90;;
46881;SDS011;44112;38.408;-122.974;2022-10-31T06:17:32;16.63;;;6.50;;
46881;SDS011;44112;38.408;-122.974;2022-10-31T06:20:00;11.93;;;6.00;;
46881;SDS011;44112;38.408;-122.974;2022-10-31T06:22:27;14.02;;;6.03;;
46881;SDS011;44112;38.408;-122.974;2022-10-31T06:24:53;13.73;;;6.38;;
46881;SDS011;44112;38.408;-122.974;2022-10-31T06:27:21;11.07;;;5.80;;
46881;SDS011;44112;38.408;-122.974;2022-10-31T06:29:48;12.65;;;5.72;;
46881;SDS011;44112;38.408;-122.974;2022-10-31T06:32:15;12.00;;;6.10;;
46881;SDS011;44112;38.408;-122.974;2022-10-31T06:34:42;13.85;;;6.30;;
46881;SDS011;44112;38.408;-122.974;2022-10-31T06:37:10;11.02;;;6.03;;
46881;SDS011;44112;38.408;-122.974;2022-10-31T06:39:37;10.07;;;5.55;;
46881;SDS011;44112;38.408;-122.974;2022-10-31T06:42:04;9.85;;;5.78;;
46881;SDS011;44112;38.408;-122.974;2022-10-31T06:44:31;11.77;;;6.13;;
46881;SDS011;44112;38.408;-122.974;2022-10-31T06:46:58;14.25;;;6.68;;
46881;SDS011;44112;38.408;-122.974;2022-10-31T06:49:25;12.52;;;6.30;;
46881;SDS011;44112;38.408;-122.974;2022-10-31T06:51:51;12.57;;;6.13;;
46881;SDS011;44112;38.408;-122.974;2022-10-31T06:54:18;13.73;;;5.78;;
46881;SDS011;44112;38.408;-122.974;2022-10-31T06:56:47;12.32;;;5.85;;
46881;SDS011;44112;38.408;-122.974;2022-10-31T06:59:14;11.98;;;5.40;;
46881;SDS011;44112;38.408;-122.974;2022-10-31T07:01:41;11.60;;;5.20;;
46881;SDS011;44112;38.408;-122.974;2022-10-31T07:04:09;11.80;;;5.93;;
46881;SDS011;44112;38.408;-122.974;2022-10-31T07:06:37;9.60;;;5.47;;
46881;SDS011;44112;38.408;-122.974;2022-10-31T07:09:05;8.23;;;5.28;;
46881;SDS011;44112;38.408;-122.974;2022-10-31T07:11:31;10.13;;;5.90;;
46881;SDS011;44112;38.408;-122.974;2022-10-31T07:13:58;9.82;;;5.80;;
46881;SDS011;44112;38.408;-122.974;2022-10-31T07:16:25;10.90;;;6.03;;
46881;SDS011;44112;38.408;-122.974;2022-10-31T07:18:52;9.35;;;5.28;;
46881;SDS011;44112;38.408;-122.974;2022-10-31T07:21:19;8.20;;;5.18;;
46881;SDS011;44112;38.408;-122.974;2022-10-31T07:23:49;11.30;;;5.70;;
46881;SDS011;44112;38.408;-122.974;2022-10-31T07:26:16;10.30;;;5.72;;
46881;SDS011;44112;38.408;-122.974;2022-10-31T07:28:45;9.15;;;5.00;;
46881;SDS011;44112;38.408;-122.974;2022-10-31T07:31:13;9.82;;;5.80;;
46881;SDS011;44112;38.408;-122.974;2022-10-31T07:33:39;10.65;;;5.63;;
46881;SDS011;44112;38.408;-122.974;2022-10-31T07:36:06;10.02;;;5.70;;
46881;SDS011;44112;38.408;-122.974;2022-10-31T07:38:33;10.57;;;5.35;;
46881;SDS011;44112;38.408;-122.974;2022-10-31T07:40:59;9.60;;;5.45;;
46881;SDS011;44112;38.408;-122.974;2022-10-31T07:43:26;11.60;;;6.43;;
46881;SDS011;44112;38.408;-122.974;2022-10-31T07:45:53;10.07;;;5.50;;
46881;SDS011;44112;38.408;-122.974;2022-10-31T07:48:20;11.77;;;6.10;;
46881;SDS011;44112;38.408;-122.974;2022-10-31T07:50:47;9.40;;;5.63;;
46881;SDS011;44112;38.408;-122.974;2022-10-31T07:53:14;9.85;;;5.53;;
46881;SDS011;44112;38.408;-122.974;2022-10-31T07:55:40;8.85;;;5.18;;
46881;SDS011;44112;38.408;-122.974;2022-10-31T07:58:09;10.38;;;6.00;;
46881;SDS011;44112;38.408;-122.974;2022-10-31T08:00:38;8.77;;;5.43;;
46881;SDS011;44112;38.408;-122.974;2022-10-31T08:03:07;10.40;;;5.65;;
46881;SDS011;44112;38.408;-122.974;2022-10-31T08:05:35;10.00;;;5.93;;
46881;SDS011;44112;38.408;-122.974;2022-10-31T08:08:03;9.65;;;5.78;;
46881;SDS011;44112;38.408;-122.974;2022-10-31T08:10:30;9.40;;;5.93;;
46881;SDS011;44112;38.408;-122.974;2022-10-31T08:13:00;9.77;;;6.32;;
46881;SDS011;44112;38.408;-122.974;2022-10-31T08:15:37;10.52;;;5.63;;
46881;SDS011;44112;38.408;-122.974;2022-10-31T08:18:06;8.32;;;5.35;;
46881;SDS011;44112;38.408;-122.974;2022-10-31T08:20:40;8.93;;;4.95;;
46881;SDS011;44112;38.408;-122.974;2022-10-31T08:23:09;10.23;;;6.00;;
46881;SDS011;44112;38.408;-122.974;2022-10-31T08:25:37;8.07;;;5.10;;
46881;SDS011;44112;38.408;-122.974;2022-10-31T08:28:04;10.20;;;5.45;;
46881;SDS011;44112;38.408;-122.974;2022-10-31T08:30:32;10.93;;;5.65;;
46881;SDS011;44112;38.408;-122.974;2022-10-31T08:35:31;8.05;;;5.10;;
46881;SDS011;44112;38.408;-122.974;2022-10-31T08:37:58;11.23;;;5.28;;
46881;SDS011;44112;38.408;-122.974;2022-10-31T08:40:26;9.35;;;5.43;;
46881;SDS011;44112;38.408;-122.974;2022-10-31T08:42:58;9.25;;;5.30;;
46881;SDS011;44112;38.408;-122.974;2022-10-31T08:45:28;9.30;;;5.00;;
46881;SDS011;44112;38.408;-122.974;2022-10-31T08:48:00;9.85;;;5.45;;
46881;SDS011;44112;38.408;-122.974;2022-10-31T08:50:29;9.13;;;5.70;;
46881;SDS011;44112;38.408;-122.974;2022-10-31T08:53:04;9.27;;;5.53;;
46881;SDS011;44112;38.408;-122.974;2022-10-31T08:55:34;9.40;;;5.25;;
46881;SDS011;44112;38.408;-122.974;2022-10-31T08:58:01;10.32;;;5.57;;
46881;SDS011;44112;38.408;-122.974;2022-10-31T09:00:29;10.70;;;5.85;;
46881;SDS011;44112;38.408;-122.974;2022-10-31T09:02:57;12.30;;;6.15;;
46881;SDS011;44112;38.408;-122.974;2022-10-31T09:05:24;11.23;;;6.03;;
46881;SDS011;44112;38.408;-122.974;2022-10-31T09:07:54;11.35;;;5.53;;
46881;SDS011;44112;38.408;-122.974;2022-10-31T09:10:22;8.88;;;5.32;;
46881;SDS011;44112;38.408;-122.974;2022-10-31T09:13:01;16.73;;;5.82;;
46881;SDS011;44112;38.408;-122.974;2022-10-31T09:15:34;12.32;;;6.25;;
46881;SDS011;44112;38.408;-122.974;2022-10-31T09:18:01;9.93;;;5.57;;
46881;SDS011;44112;38.408;-122.974;2022-10-31T09:20:28;10.07;;;5.32;;
46881;SDS011;44112;38.408;-122.974;2022-10-31T09:22:59;12.85;;;5.50;;
46881;SDS011;44112;38.408;-122.974;2022-10-31T09:25:27;11.45;;;6.28;;
46881;SDS011;44112;38.408;-122.974;2022-10-31T09:27:57;12.30;;;5.47;;
46881;SDS011;44112;38.408;-122.974;2022-10-31T09:30:26;10.35;;;5.55;;
46881;SDS011;44112;38.408;-122.974;2022-10-31T09:33:00;14.25;;;5.55;;
46881;SDS011;44112;38.408;-122.974;2022-10-31T09:35:28;9.88;;;5.45;;
46881;SDS011;44112;38.408;-122.974;2022-10-31T09:40:22;14.50;;;6.07;;
46881;SDS011;44112;38.408;-122.974;2022-10-31T09:43:11;12.67;;;5.90;;
46881;SDS011;44112;38.408;-122.974;2022-10-31T09:51:33;11.95;;;5.68;;
46881;SDS011;44112;38.408;-122.974;2022-10-31T09:56:43;10.02;;;5.60;;
46881;SDS011;44112;38.408;-122.974;2022-10-31T09:59:13;14.35;;;6.13;;
46881;SDS011;44112;38.408;-122.974;2022-10-31T10:01:53;11.15;;;5.50;;
46881;SDS011;44112;38.408;-122.974;2022-10-31T10:04:34;11.63;;;5.35;;
46881;SDS011;44112;38.408;-122.974;2022-10-31T10:09:42;11.25;;;5.63;;
46881;SDS011;44112;38.408;-122.974;2022-10-31T10:29:47;10.90;;;5.43;;
46881;SDS011;44112;38.408;-122.974;2022-10-31T10:32:26;11.98;;;5.68;;
46881;SDS011;44112;38.408;-122.974;2022-10-31T10:35:14;11.07;;;5.90;;
46881;SDS011;44112;38.408;-122.974;2022-10-31T10:37:50;11.45;;;6.10;;
46881;SDS011;44112;38.408;-122.974;2022-10-31T10:40:23;9.73;;;5.65;;
46881;SDS011;44112;38.408;-122.974;2022-10-31T10:46:43;10.13;;;5.82;;
46881;SDS011;44112;38.408;-122.974;2022-10-31T10:52:25;11.65;;;5.60;;
46881;SDS011;44112;38.408;-122.974;2022-10-31T10:54:58;9.65;;;5.50;;
46881;SDS011;44112;38.408;-122.974;2022-10-31T11:00:21;11.32;;;5.93;;
46881;SDS011;44112;38.408;-122.974;2022-10-31T11:02:53;11.40;;;5.65;;
46881;SDS011;44112;38.408;-122.974;2022-10-31T11:05:24;9.68;;;5.68;;
46881;SDS011;44112;38.408;-122.974;2022-10-31T11:07:53;10.15;;;5.28;;
46881;SDS011;44112;38.408;-122.974;2022-10-31T11:10:20;10.25;;;5.65;;
46881;SDS011;44112;38.408;-122.974;2022-10-31T11:16:00;10.15;;;5.35;;
46881;SDS011;44112;38.408;-122.974;2022-10-31T11:18:27;9.88;;;5.40;;
46881;SDS011;44112;38.408;-122.974;2022-10-31T11:20:59;11.77;;;5.75;;
46881;SDS011;44112;38.408;-122.974;2022-10-31T11:23:29;9.07;;;5.40;;
46881;SDS011;44112;38.408;-122.974;2022-10-31T11:28:24;9.13;;;5.75;;
46881;SDS011;44112;38.408;-122.974;2022-10-31T11:36:21;11.60;;;6.20;;
46881;SDS011;44112;38.408;-122.974;2022-10-31T11:38:56;10.77;;;5.68;;
46881;SDS011;44112;38.408;-122.974;2022-10-31T11:44:00;8.70;;;5.35;;
46881;SDS011;44112;38.408;-122.974;2022-10-31T11:46:40;9.27;;;5.70;;
46881;SDS011;44112;38.408;-122.974;2022-10-31T11:51:40;10.13;;;5.68;;
46881;SDS011;44112;38.408;-122.974;2022-10-31T11:54:15;10.10;;;5.57;;
46881;SDS011;44112;38.408;-122.974;2022-10-31T11:56:56;9.90;;;5.93;;
46881;SDS011;44112;38.408;-122.974;2022-10-31T11:59:25;8.90;;;5.63;;
46881;SDS011;44112;38.408;-122.974;2022-10-31T12:04:31;9.15;;;6.10;;
46881;SDS011;44112;38.408;-122.974;2022-10-31T12:07:06;9.40;;;6.00;;
46881;SDS011;44112;38.408;-122.974;2022-10-31T12:09:34;8.50;;;5.57;;
46881;SDS011;44112;38.408;-122.974;2022-10-31T12:12:25;10.27;;;5.65;;
46881;SDS011;44112;38.408;-122.974;2022-10-31T12:28:45;9.43;;;5.18;;
46881;SDS011;44112;38.408;-122.974;2022-10-31T12:45:56;9.95;;;5.55;;
46881;SDS011;44112;38.408;-122.974;2022-10-31T12:48:44;8.75;;;5.25;;
46881;SDS011;44112;38.408;-122.974;2022-10-31T12:59:31;9.93;;;5.72;;
46881;SDS011;44112;38.408;-122.974;2022-10-31T13:02:10;10.90;;;5.82;;
46881;SDS011;44112;38.408;-122.974;2022-10-31T13:04:58;9.10;;;5.55;;
46881;SDS011;44112;38.408;-122.974;2022-10-31T13:07:41;8.85;;;5.40;;
46881;SDS011;44112;38.408;-122.974;2022-10-31T13:12:43;9.90;;;6.07;;
46881;SDS011;44112;38.408;-122.974;2022-10-31T13:15:25;9.02;;;5.60;;
46881;SDS011;44112;38.408;-122.974;2022-10-31T13:17:55;10.10;;;6.15;;
46881;SDS011;44112;38.408;-122.974;2022-10-31T13:26:01;8.90;;;5.82;;
46881;SDS011;44112;38.408;-122.974;2022-10-31T13:31:22;9.80;;;5.97;;
46881;SDS011;44112;38.408;-122.974;2022-10-31T13:33:59;8.75;;;5.20;;
46881;SDS011;44112;38.408;-122.974;2022-10-31T13:46:41;10.35;;;6.20;;
46881;SDS011;44112;38.408;-122.974;2022-10-31T13:54:37;10.10;;;6.15;;
46881;SDS011;44112;38.408;-122.974;2022-10-31T14:02:17;9.05;;;5.55;;
46881;SDS011;44112;38.408;-122.974;2022-10-31T14:04:51;9.73;;;5.63;;
46881;SDS011;44112;38.408;-122.974;2022-10-31T14:07:22;10.05;;;5.70;;
46881;SDS011;44112;38.408;-122.974;2022-10-31T14:12:46;10.32;;;6.10;;
46881;SDS011;44112;38.408;-122.974;2022-10-31T14:15:24;9.98;;;5.35;;
46881;SDS011;44112;38.408;-122.974;2022-10-31T14:17:57;10.35;;;5.88;;
46881;SDS011;44112;38.408;-122.974;2022-10-31T14:20:37;11.02;;;5.72;;
46881;SDS011;44112;38.408;-122.974;2022-10-31T14:23:11;9.23;;;5.80;;
46881;SDS011;44112;38.408;-122.974;2022-10-31T14:26:07;8.98;;;5.68;;
46881;SDS011;44112;38.408;-122.974;2022-10-31T14:28:56;8.65;;;5.65;;
46881;SDS011;44112;38.408;-122.974;2022-10-31T14:33:51;9.27;;;5.60;;
46881;SDS011;44112;38.408;-122.974;2022-10-31T14:36:21;8.77;;;5.38;;
46881;SDS011;44112;38.408;-122.974;2022-10-31T14:45:05;9.68;;;5.25;;
46881;SDS011;44112;38.408;-122.974;2022-10-31T14:55:56;9.52;;;5.43;;
46881;SDS011;44112;38.408;-122.974;2022-10-31T14:58:25;9.40;;;5.47;;
46881;SDS011;44112;38.408;-122.974;2022-10-31T15:01:05;9.85;;;5.75;;
46881;SDS011;44112;38.408;-122.974;2022-10-31T15:03:33;7.75;;;4.72;;
46881;SDS011;44112;38.408;-122.974;2022-10-31T15:06:14;8.20;;;4.90;;
46881;SDS011;44112;38.408;-122.974;2022-10-31T15:08:44;8.65;;;5.80;;
46881;SDS011;44112;38.408;-122.974;2022-10-31T15:11:13;8.98;;;5.35;;
46881;SDS011;44112;38.408;-122.974;2022-10-31T15:13:46;8.38;;;5.20;;
46881;SDS011;44112;38.408;-122.974;2022-10-31T15:16:18;9.63;;;5.47;;
46881;SDS011;44112;38.408;-122.974;2022-10-31T15:19:08;9.02;;;5.40;;
46881;SDS011;44112;38.408;-122.974;2022-10-31T15:21:40;9.68;;;5.47;;
46881;SDS011;44112;38.408;-122.974;2022-10-31T15:24:15;8.68;;;5.35;;
46881;SDS011;44112;38.408;-122.974;2022-10-31T15:26:45;8.80;;;5.75;;
46881;SDS011;44112;38.408;-122.974;2022-10-31T15:29:18;9.30;;;5.20;;
46881;SDS011;44112;38.408;-122.974;2022-10-31T15:34:41;8.90;;;5.22;;
46881;SDS011;44112;38.408;-122.974;2022-10-31T15:37:12;10.05;;;5.75;;
46881;SDS011;44112;38.408;-122.974;2022-10-31T15:39:41;9.18;;;5.78;;
46881;SDS011;44112;38.408;-122.974;2022-10-31T15:42:41;10.25;;;5.63;;
46881;SDS011;44112;38.408;-122.974;2022-10-31T15:47:36;9.20;;;5.40;;
46881;SDS011;44112;38.408;-122.974;2022-10-31T15:50:03;10.95;;;5.50;;
46881;SDS011;44112;38.408;-122.974;2022-10-31T15:52:43;8.70;;;5.28;;
46881;SDS011;44112;38.408;-122.974;2022-10-31T15:55:19;9.75;;;5.07;;
46881;SDS011;44112;38.408;-122.974;2022-10-31T15:57:54;9.32;;;5.53;;
46881;SDS011;44112;38.408;-122.974;2022-10-31T16:00:27;11.13;;;5.32;;
46881;SDS011;44112;38.408;-122.974;2022-10-31T16:10:54;8.25;;;5.15;;
46881;SDS011;44112;38.408;-122.974;2022-10-31T16:13:23;9.52;;;6.05;;
46881;SDS011;44112;38.408;-122.974;2022-10-31T16:15:55;13.70;;;5.82;;
46881;SDS011;44112;38.408;-122.974;2022-10-31T16:18:30;9.65;;;5.10;;
46881;SDS011;44112;38.408;-122.974;2022-10-31T16:21:02;9.63;;;5.05;;
46881;SDS011;44112;38.408;-122.974;2022-10-31T16:23:30;9.15;;;5.22;;
46881;SDS011;44112;38.408;-122.974;2022-10-31T16:25:58;10.90;;;5.25;;
46881;SDS011;44112;38.408;-122.974;2022-10-31T16:28:26;9.95;;;5.38;;
46881;SDS011;44112;38.408;-122.974;2022-10-31T16:30:54;10.80;;;5.38;;
46881;SDS011;44112;38.408;-122.974;2022-10-31T16:33:29;10.10;;;5.18;;
46881;SDS011;44112;38.408;-122.974;2022-10-31T16:38:56;8.77;;;5.47;;
46881;SDS011;44112;38.408;-122.974;2022-10-31T16:41:23;8.40;;;5.28;;
46881;SDS011;44112;38.408;-122.974;2022-10-31T16:43:52;8.82;;;5.32;;
46881;SDS011;44112;38.408;-122.974;2022-10-31T16:46:22;10.82;;;5.53;;
46881;SDS011;44112;38.408;-122.974;2022-10-31T16:48:52;8.60;;;5.30;;
46881;SDS011;44112;38.408;-122.974;2022-10-31T16:51:20;10.80;;;5.15;;
46881;SDS011;44112;38.408;-122.974;2022-10-31T16:53:46;9.00;;;5.05;;
46881;SDS011;44112;38.408;-122.974;2022-10-31T16:56:17;9.98;;;5.35;;
46881;SDS011;44112;38.408;-122.974;2022-10-31T16:59:04;9.00;;;5.13;;
46881;SDS011;44112;38.408;-122.974;2022-10-31T17:01:36;9.20;;;5.03;;
46881;SDS011;44112;38.408;-122.974;2022-10-31T17:04:03;8.57;;;4.97;;
46881;SDS011;44112;38.408;-122.974;2022-10-31T17:06:29;11.18;;;5.53;;
46881;SDS011;44112;38.408;-122.974;2022-10-31T17:08:56;9.63;;;5.63;;
46881;SDS011;44112;38.408;-122.974;2022-10-31T17:11:23;9.23;;;5.22;;
46881;SDS011;44112;38.408;-122.974;2022-10-31T17:13:51;9.73;;;5.07;;
46881;SDS011;44112;38.408;-122.974;2022-10-31T17:16:19;10.32;;;5.30;;
46881;SDS011;44112;38.408;-122.974;2022-10-31T17:18:45;9.35;;;5.18;;
46881;SDS011;44112;38.408;-122.974;2022-10-31T17:21:15;8.38;;;4.97;;
46881;SDS011;44112;38.408;-122.974;2022-10-31T17:23:47;8.70;;;5.35;;
46881;SDS011;44112;38.408;-122.974;2022-10-31T17:26:16;9.30;;;5.30;;
46881;SDS011;44112;38.408;-122.974;2022-10-31T17:28:43;8.65;;;5.22;;
46881;SDS011;44112;38.408;-122.974;2022-10-31T17:31:21;11.13;;;5.65;;
46881;SDS011;44112;38.408;-122.974;2022-10-31T17:33:52;10.18;;;5.53;;
46881;SDS011;44112;38.408;-122.974;2022-10-31T17:36:24;9.55;;;5.40;;
46881;SDS011;44112;38.408;-122.974;2022-10-31T17:38:51;9.95;;;5.60;;
46881;SDS011;44112;38.408;-122.974;2022-10-31T17:41:19;9.18;;;5.45;;
46881;SDS011;44112;38.408;-122.974;2022-10-31T17:43:45;10.77;;;5.32;;
46881;SDS011;44112;38.408;-122.974;2022-10-31T17:46:13;10.15;;;4.95;;
46881;SDS011;44112;38.408;-122.974;2022-10-31T17:48:41;8.90;;;5.22;;